sensor_id;sensor_type;location;lat;lon;timestamp;P1;durP1;ratioP1;P2;durP2;ratioP2
73113;SDS011;61301;51.956;5.876;2023-02-04T00:00:54;8.88;;;1.85;;
73113;SDS011;61301;51.956;5.876;2023-02-04T00:03:20;9.13;;;2.17;;
73113;SDS011;61301;51.956;5.876;2023-02-04T00:05:46;15.93;;;3.28;;
73113;SDS011;61301;51.956;5.876;2023-02-04T00:08:12;17.15;;;3.28;;
73113;SDS011;61301;51.956;5.876;2023-02-04T00:10:38;10.95;;;2.75;;
73113;SDS011;61301;51.956;5.876;2023-02-04T00:13:04;9.02;;;2.20;;
73113;SDS011;61301;51.956;5.876;2023-02-04T00:15:30;6.50;;;1.95;;
73113;SDS011;61301;51.956;5.876;2023-02-04T00:17:56;10.00;;;2.53;;
73113;SDS011;61301;51.956;5.876;2023-02-04T00:20:22;7.60;;;2.05;;
73113;SDS011;61301;51.956;5.876;2023-02-04T00:22:48;6.35;;;1.55;;
73113;SDS011;61301;51.956;5.876;2023-02-04T00:25:15;7.05;;;1.70;;
73113;SDS011;61301;51.956;5.876;2023-02-04T00:27:42;8.90;;;2.28;;
73113;SDS011;61301;51.956;5.876;2023-02-04T00:30:09;4.88;;;1.90;;
73113;SDS011;61301;51.956;5.876;2023-02-04T00:32:35;4.35;;;1.58;;
73113;SDS011;61301;51.956;5.876;2023-02-04T00:35:01;5.88;;;1.55;;
73113;SDS011;61301;51.956;5.876;2023-02-04T00:37:29;6.10;;;1.75;;
73113;SDS011;61301;51.956;5.876;2023-02-04T00:39:56;3.58;;;1.13;;
73113;SDS011;61301;51.956;5.876;2023-02-04T00:42:22;10.00;;;2.83;;
73113;SDS011;61301;51.956;5.876;2023-02-04T00:44:48;11.35;;;3.05;;
73113;SDS011;61301;51.956;5.876;2023-02-04T00:47:14;10.32;;;2.25;;
73113;SDS011;61301;51.956;5.876;2023-02-04T00:49:40;5.47;;;1.58;;
73113;SDS011;61301;51.956;5.876;2023-02-04T00:52:06;3.78;;;1.10;;
73113;SDS011;61301;51.956;5.876;2023-02-04T00:54:32;2.97;;;0.82;;
73113;SDS011;61301;51.956;5.876;2023-02-04T00:56:58;6.28;;;1.80;;
73113;SDS011;61301;51.956;5.876;2023-02-04T00:59:24;5.22;;;1.20;;
73113;SDS011;61301;51.956;5.876;2023-02-04T01:01:50;5.95;;;1.60;;
73113;SDS011;61301;51.956;5.876;2023-02-04T01:04:16;9.57;;;2.13;;
73113;SDS011;61301;51.956;5.876;2023-02-04T01:06:42;15.88;;;3.67;;
73113;SDS011;61301;51.956;5.876;2023-02-04T01:09:09;8.85;;;2.17;;
73113;SDS011;61301;51.956;5.876;2023-02-04T01:11:35;18.70;;;3.85;;
73113;SDS011;61301;51.956;5.876;2023-02-04T01:14:01;5.90;;;1.60;;
73113;SDS011;61301;51.956;5.876;2023-02-04T01:16:27;10.50;;;2.67;;
73113;SDS011;61301;51.956;5.876;2023-02-04T01:18:53;18.58;;;3.60;;
73113;SDS011;61301;51.956;5.876;2023-02-04T01:21:21;16.25;;;3.88;;
73113;SDS011;61301;51.956;5.876;2023-02-04T01:23:48;6.38;;;1.98;;
73113;SDS011;61301;51.956;5.876;2023-02-04T01:26:15;10.63;;;2.30;;
73113;SDS011;61301;51.956;5.876;2023-02-04T01:28:42;7.10;;;1.67;;
73113;SDS011;61301;51.956;5.876;2023-02-04T01:31:08;22.27;;;4.15;;
73113;SDS011;61301;51.956;5.876;2023-02-04T01:33:34;15.52;;;2.92;;
73113;SDS011;61301;51.956;5.876;2023-02-04T01:36:00;11.43;;;2.35;;
73113;SDS011;61301;51.956;5.876;2023-02-04T01:38:26;14.23;;;2.95;;
73113;SDS011;61301;51.956;5.876;2023-02-04T01:40:52;17.80;;;2.88;;
73113;SDS011;61301;51.956;5.876;2023-02-04T01:43:21;12.48;;;2.88;;
73113;SDS011;61301;51.956;5.876;2023-02-04T01:45:48;24.75;;;4.32;;
73113;SDS011;61301;51.956;5.876;2023-02-04T01:48:15;15.63;;;3.05;;
73113;SDS011;61301;51.956;5.876;2023-02-04T01:50:45;13.57;;;2.88;;
73113;SDS011;61301;51.956;5.876;2023-02-04T01:53:17;12.70;;;2.40;;
73113;SDS011;61301;51.956;5.876;2023-02-04T01:55:46;6.65;;;1.75;;
73113;SDS011;61301;51.956;5.876;2023-02-04T01:58:12;15.38;;;2.85;;
73113;SDS011;61301;51.956;5.876;2023-02-04T02:00:40;8.85;;;2.05;;
73113;SDS011;61301;51.956;5.876;2023-02-04T02:03:06;9.50;;;3.20;;
73113;SDS011;61301;51.956;5.876;2023-02-04T02:08:08;13.95;;;1.75;;
73113;SDS011;61301;51.956;5.876;2023-02-04T02:10:37;6.68;;;1.35;;
73113;SDS011;61301;51.956;5.876;2023-02-04T02:13:06;4.70;;;1.20;;
73113;SDS011;61301;51.956;5.876;2023-02-04T02:15:37;10.13;;;1.95;;
73113;SDS011;61301;51.956;5.876;2023-02-04T02:18:04;11.55;;;2.47;;
73113;SDS011;61301;51.956;5.876;2023-02-04T02:20:31;12.15;;;2.53;;
73113;SDS011;61301;51.956;5.876;2023-02-04T02:23:13;12.82;;;2.10;;
73113;SDS011;61301;51.956;5.876;2023-02-04T02:25:47;7.82;;;1.70;;
73113;SDS011;61301;51.956;5.876;2023-02-04T02:28:14;9.70;;;2.55;;
73113;SDS011;61301;51.956;5.876;2023-02-04T02:30:42;7.38;;;2.03;;
73113;SDS011;61301;51.956;5.876;2023-02-04T02:33:14;6.88;;;1.48;;
73113;SDS011;61301;51.956;5.876;2023-02-04T02:35:42;13.13;;;2.72;;
73113;SDS011;61301;51.956;5.876;2023-02-04T02:38:10;9.25;;;2.15;;
73113;SDS011;61301;51.956;5.876;2023-02-04T02:40:37;6.88;;;2.20;;
73113;SDS011;61301;51.956;5.876;2023-02-04T02:43:03;11.85;;;2.75;;
73113;SDS011;61301;51.956;5.876;2023-02-04T02:45:31;13.25;;;3.40;;
73113;SDS011;61301;51.956;5.876;2023-02-04T02:47:58;12.20;;;2.72;;
73113;SDS011;61301;51.956;5.876;2023-02-04T02:50:28;9.85;;;2.13;;
73113;SDS011;61301;51.956;5.876;2023-02-04T02:52:58;12.77;;;2.22;;
73113;SDS011;61301;51.956;5.876;2023-02-04T02:55:25;8.75;;;2.38;;
73113;SDS011;61301;51.956;5.876;2023-02-04T02:57:52;13.68;;;3.55;;
73113;SDS011;61301;51.956;5.876;2023-02-04T03:00:26;19.40;;;3.78;;
73113;SDS011;61301;51.956;5.876;2023-02-04T03:05:21;6.78;;;1.83;;
73113;SDS011;61301;51.956;5.876;2023-02-04T03:07:48;10.60;;;2.30;;
73113;SDS011;61301;51.956;5.876;2023-02-04T03:10:15;15.88;;;3.15;;
73113;SDS011;61301;51.956;5.876;2023-02-04T03:12:44;29.27;;;4.82;;
73113;SDS011;61301;51.956;5.876;2023-02-04T03:15:11;12.25;;;2.45;;
73113;SDS011;61301;51.956;5.876;2023-02-04T03:17:38;12.95;;;3.25;;
73113;SDS011;61301;51.956;5.876;2023-02-04T03:20:05;15.27;;;3.50;;
73113;SDS011;61301;51.956;5.876;2023-02-04T03:22:31;13.38;;;3.17;;
73113;SDS011;61301;51.956;5.876;2023-02-04T03:24:58;8.25;;;1.80;;
73113;SDS011;61301;51.956;5.876;2023-02-04T03:27:24;12.77;;;2.85;;
73113;SDS011;61301;51.956;5.876;2023-02-04T03:29:50;10.68;;;2.75;;
73113;SDS011;61301;51.956;5.876;2023-02-04T03:32:16;11.75;;;2.97;;
73113;SDS011;61301;51.956;5.876;2023-02-04T03:34:42;19.80;;;4.00;;
73113;SDS011;61301;51.956;5.876;2023-02-04T03:37:08;18.63;;;3.40;;
73113;SDS011;61301;51.956;5.876;2023-02-04T03:39:34;17.85;;;3.75;;
73113;SDS011;61301;51.956;5.876;2023-02-04T03:42:00;8.77;;;3.00;;
73113;SDS011;61301;51.956;5.876;2023-02-04T03:44:26;14.75;;;4.63;;
73113;SDS011;61301;51.956;5.876;2023-02-04T03:46:52;11.75;;;2.85;;
73113;SDS011;61301;51.956;5.876;2023-02-04T03:49:20;11.25;;;2.47;;
73113;SDS011;61301;51.956;5.876;2023-02-04T03:51:46;9.80;;;2.70;;
73113;SDS011;61301;51.956;5.876;2023-02-04T03:54:12;12.10;;;2.95;;
73113;SDS011;61301;51.956;5.876;2023-02-04T03:56:39;11.10;;;2.72;;
73113;SDS011;61301;51.956;5.876;2023-02-04T03:59:05;15.00;;;3.53;;
73113;SDS011;61301;51.956;5.876;2023-02-04T04:01:31;12.10;;;2.28;;
73113;SDS011;61301;51.956;5.876;2023-02-04T04:03:57;13.05;;;2.40;;
73113;SDS011;61301;51.956;5.876;2023-02-04T04:06:23;10.77;;;2.15;;
73113;SDS011;61301;51.956;5.876;2023-02-04T04:08:49;4.55;;;1.50;;
73113;SDS011;61301;51.956;5.876;2023-02-04T04:11:15;4.10;;;0.88;;
73113;SDS011;61301;51.956;5.876;2023-02-04T04:13:41;4.68;;;1.23;;
73113;SDS011;61301;51.956;5.876;2023-02-04T04:16:07;10.20;;;2.38;;
73113;SDS011;61301;51.956;5.876;2023-02-04T04:18:34;6.30;;;1.88;;
73113;SDS011;61301;51.956;5.876;2023-02-04T04:21:00;9.23;;;2.20;;
73113;SDS011;61301;51.956;5.876;2023-02-04T04:23:26;6.47;;;2.22;;
73113;SDS011;61301;51.956;5.876;2023-02-04T04:25:52;16.88;;;2.90;;
73113;SDS011;61301;51.956;5.876;2023-02-04T04:28:18;10.50;;;2.50;;
73113;SDS011;61301;51.956;5.876;2023-02-04T04:30:44;15.35;;;3.83;;
73113;SDS011;61301;51.956;5.876;2023-02-04T04:33:11;16.55;;;3.25;;
73113;SDS011;61301;51.956;5.876;2023-02-04T04:35:37;14.02;;;2.40;;
73113;SDS011;61301;51.956;5.876;2023-02-04T04:38:03;10.80;;;1.98;;
73113;SDS011;61301;51.956;5.876;2023-02-04T04:40:29;6.25;;;1.98;;
73113;SDS011;61301;51.956;5.876;2023-02-04T04:42:55;7.80;;;2.05;;
73113;SDS011;61301;51.956;5.876;2023-02-04T04:45:21;9.23;;;1.95;;
73113;SDS011;61301;51.956;5.876;2023-02-04T04:47:47;7.82;;;2.00;;
73113;SDS011;61301;51.956;5.876;2023-02-04T04:50:13;2.88;;;0.80;;
73113;SDS011;61301;51.956;5.876;2023-02-04T04:52:39;13.45;;;2.67;;
73113;SDS011;61301;51.956;5.876;2023-02-04T04:55:05;5.65;;;1.00;;
73113;SDS011;61301;51.956;5.876;2023-02-04T04:57:33;6.63;;;0.93;;
73113;SDS011;61301;51.956;5.876;2023-02-04T04:59:59;4.63;;;1.33;;
73113;SDS011;61301;51.956;5.876;2023-02-04T05:02:24;4.95;;;1.10;;
73113;SDS011;61301;51.956;5.876;2023-02-04T05:04:50;2.85;;;0.82;;
73113;SDS011;61301;51.956;5.876;2023-02-04T05:07:16;4.18;;;1.20;;
73113;SDS011;61301;51.956;5.876;2023-02-04T05:09:42;2.60;;;0.60;;
73113;SDS011;61301;51.956;5.876;2023-02-04T05:12:08;3.20;;;0.80;;
73113;SDS011;61301;51.956;5.876;2023-02-04T05:14:34;4.82;;;0.93;;
73113;SDS011;61301;51.956;5.876;2023-02-04T05:17:00;2.72;;;0.70;;
73113;SDS011;61301;51.956;5.876;2023-02-04T05:19:26;2.28;;;1.05;;
73113;SDS011;61301;51.956;5.876;2023-02-04T05:21:52;4.43;;;0.90;;
73113;SDS011;61301;51.956;5.876;2023-02-04T05:24:18;1.92;;;0.73;;
73113;SDS011;61301;51.956;5.876;2023-02-04T05:26:44;4.80;;;0.95;;
73113;SDS011;61301;51.956;5.876;2023-02-04T05:29:10;10.55;;;2.17;;
73113;SDS011;61301;51.956;5.876;2023-02-04T05:31:36;4.07;;;1.23;;
73113;SDS011;61301;51.956;5.876;2023-02-04T05:34:02;1.15;;;0.68;;
73113;SDS011;61301;51.956;5.876;2023-02-04T05:36:28;5.63;;;1.25;;
73113;SDS011;61301;51.956;5.876;2023-02-04T05:38:54;4.13;;;1.23;;
73113;SDS011;61301;51.956;5.876;2023-02-04T05:41:20;2.85;;;1.33;;
73113;SDS011;61301;51.956;5.876;2023-02-04T05:43:46;1.05;;;0.40;;
73113;SDS011;61301;51.956;5.876;2023-02-04T05:46:12;1.83;;;0.80;;
73113;SDS011;61301;51.956;5.876;2023-02-04T05:48:38;1.13;;;0.50;;
73113;SDS011;61301;51.956;5.876;2023-02-04T05:51:04;6.72;;;1.77;;
73113;SDS011;61301;51.956;5.876;2023-02-04T05:53:30;12.25;;;2.30;;
73113;SDS011;61301;51.956;5.876;2023-02-04T05:55:56;5.75;;;2.03;;
73113;SDS011;61301;51.956;5.876;2023-02-04T05:58:22;4.85;;;1.17;;
73113;SDS011;61301;51.956;5.876;2023-02-04T06:00:48;4.88;;;1.17;;
73113;SDS011;61301;51.956;5.876;2023-02-04T06:03:14;3.58;;;0.93;;
73113;SDS011;61301;51.956;5.876;2023-02-04T06:05:40;2.63;;;0.68;;
73113;SDS011;61301;51.956;5.876;2023-02-04T06:08:08;3.35;;;1.05;;
73113;SDS011;61301;51.956;5.876;2023-02-04T06:10:35;2.65;;;1.00;;
73113;SDS011;61301;51.956;5.876;2023-02-04T06:13:01;2.17;;;0.60;;
73113;SDS011;61301;51.956;5.876;2023-02-04T06:15:27;10.50;;;1.98;;
73113;SDS011;61301;51.956;5.876;2023-02-04T06:17:53;11.20;;;3.65;;
73113;SDS011;61301;51.956;5.876;2023-02-04T06:20:19;13.27;;;2.58;;
73113;SDS011;61301;51.956;5.876;2023-02-04T06:22:45;13.98;;;3.08;;
73113;SDS011;61301;51.956;5.876;2023-02-04T06:25:12;11.27;;;2.40;;
73113;SDS011;61301;51.956;5.876;2023-02-04T06:27:38;3.30;;;1.30;;
73113;SDS011;61301;51.956;5.876;2023-02-04T06:30:04;4.90;;;1.40;;
73113;SDS011;61301;51.956;5.876;2023-02-04T06:32:30;9.25;;;1.52;;
73113;SDS011;61301;51.956;5.876;2023-02-04T06:34:56;2.60;;;0.73;;
73113;SDS011;61301;51.956;5.876;2023-02-04T06:37:22;7.05;;;1.42;;
73113;SDS011;61301;51.956;5.876;2023-02-04T06:39:48;7.78;;;2.33;;
73113;SDS011;61301;51.956;5.876;2023-02-04T06:42:14;8.15;;;1.90;;
73113;SDS011;61301;51.956;5.876;2023-02-04T06:44:40;4.07;;;1.00;;
73113;SDS011;61301;51.956;5.876;2023-02-04T06:47:06;5.93;;;1.63;;
73113;SDS011;61301;51.956;5.876;2023-02-04T06:49:32;8.32;;;1.95;;
73113;SDS011;61301;51.956;5.876;2023-02-04T06:51:58;7.85;;;1.67;;
73113;SDS011;61301;51.956;5.876;2023-02-04T06:54:24;4.85;;;1.35;;
73113;SDS011;61301;51.956;5.876;2023-02-04T06:56:50;1.35;;;0.60;;
73113;SDS011;61301;51.956;5.876;2023-02-04T06:59:16;2.58;;;0.73;;
73113;SDS011;61301;51.956;5.876;2023-02-04T07:01:42;2.78;;;0.68;;
73113;SDS011;61301;51.956;5.876;2023-02-04T07:04:08;1.90;;;0.60;;
73113;SDS011;61301;51.956;5.876;2023-02-04T07:06:34;3.90;;;0.80;;
73113;SDS011;61301;51.956;5.876;2023-02-04T07:09:00;2.67;;;0.93;;
73113;SDS011;61301;51.956;5.876;2023-02-04T07:11:26;4.00;;;1.17;;
73113;SDS011;61301;51.956;5.876;2023-02-04T07:13:52;4.88;;;1.83;;
73113;SDS011;61301;51.956;5.876;2023-02-04T07:16:18;3.92;;;1.33;;
73113;SDS011;61301;51.956;5.876;2023-02-04T07:18:44;9.02;;;2.33;;
73113;SDS011;61301;51.956;5.876;2023-02-04T07:21:10;11.45;;;3.10;;
73113;SDS011;61301;51.956;5.876;2023-02-04T07:23:36;9.23;;;2.45;;
73113;SDS011;61301;51.956;5.876;2023-02-04T07:26:01;4.22;;;1.20;;
73113;SDS011;61301;51.956;5.876;2023-02-04T07:28:28;6.65;;;1.88;;
73113;SDS011;61301;51.956;5.876;2023-02-04T07:30:54;9.35;;;2.03;;
73113;SDS011;61301;51.956;5.876;2023-02-04T07:33:20;14.52;;;3.72;;
73113;SDS011;61301;51.956;5.876;2023-02-04T07:35:46;5.30;;;1.67;;
73113;SDS011;61301;51.956;5.876;2023-02-04T07:38:11;4.53;;;1.23;;
73113;SDS011;61301;51.956;5.876;2023-02-04T07:40:37;3.13;;;0.80;;
73113;SDS011;61301;51.956;5.876;2023-02-04T07:43:03;4.97;;;1.30;;
73113;SDS011;61301;51.956;5.876;2023-02-04T07:45:31;5.88;;;2.38;;
73113;SDS011;61301;51.956;5.876;2023-02-04T07:47:57;15.80;;;4.25;;
73113;SDS011;61301;51.956;5.876;2023-02-04T07:50:23;10.40;;;3.63;;
73113;SDS011;61301;51.956;5.876;2023-02-04T07:52:49;5.80;;;2.10;;
73113;SDS011;61301;51.956;5.876;2023-02-04T07:55:15;19.10;;;5.88;;
73113;SDS011;61301;51.956;5.876;2023-02-04T07:57:41;17.50;;;4.22;;
73113;SDS011;61301;51.956;5.876;2023-02-04T08:00:08;15.43;;;3.97;;
73113;SDS011;61301;51.956;5.876;2023-02-04T08:02:41;16.15;;;4.10;;
73113;SDS011;61301;51.956;5.876;2023-02-04T08:05:07;16.50;;;3.90;;
73113;SDS011;61301;51.956;5.876;2023-02-04T08:07:33;16.35;;;4.70;;
73113;SDS011;61301;51.956;5.876;2023-02-04T08:09:59;11.68;;;2.97;;
73113;SDS011;61301;51.956;5.876;2023-02-04T08:12:25;4.60;;;1.70;;
73113;SDS011;61301;51.956;5.876;2023-02-04T08:14:52;8.15;;;2.17;;
73113;SDS011;61301;51.956;5.876;2023-02-04T08:17:18;16.23;;;4.47;;
73113;SDS011;61301;51.956;5.876;2023-02-04T08:19:44;13.70;;;3.20;;
73113;SDS011;61301;51.956;5.876;2023-02-04T08:22:10;15.27;;;4.22;;
73113;SDS011;61301;51.956;5.876;2023-02-04T08:24:36;16.05;;;4.97;;
73113;SDS011;61301;51.956;5.876;2023-02-04T08:27:02;19.58;;;3.75;;
73113;SDS011;61301;51.956;5.876;2023-02-04T08:29:29;6.88;;;3.10;;
73113;SDS011;61301;51.956;5.876;2023-02-04T08:31:55;19.58;;;4.15;;
73113;SDS011;61301;51.956;5.876;2023-02-04T08:34:21;10.98;;;2.53;;
73113;SDS011;61301;51.956;5.876;2023-02-04T08:36:47;17.50;;;4.53;;
73113;SDS011;61301;51.956;5.876;2023-02-04T08:39:12;25.02;;;6.18;;
73113;SDS011;61301;51.956;5.876;2023-02-04T08:41:38;15.55;;;4.40;;
73113;SDS011;61301;51.956;5.876;2023-02-04T08:44:05;13.57;;;3.22;;
73113;SDS011;61301;51.956;5.876;2023-02-04T08:46:31;5.57;;;1.75;;
73113;SDS011;61301;51.956;5.876;2023-02-04T08:48:57;12.93;;;5.00;;
73113;SDS011;61301;51.956;5.876;2023-02-04T08:51:23;12.48;;;3.22;;
73113;SDS011;61301;51.956;5.876;2023-02-04T08:53:49;5.55;;;2.25;;
73113;SDS011;61301;51.956;5.876;2023-02-04T08:56:15;12.93;;;3.08;;
73113;SDS011;61301;51.956;5.876;2023-02-04T08:58:43;15.80;;;3.90;;
73113;SDS011;61301;51.956;5.876;2023-02-04T09:01:09;10.50;;;3.40;;
73113;SDS011;61301;51.956;5.876;2023-02-04T09:03:36;8.25;;;2.67;;
73113;SDS011;61301;51.956;5.876;2023-02-04T09:06:03;4.15;;;1.90;;
73113;SDS011;61301;51.956;5.876;2023-02-04T09:08:29;14.38;;;2.88;;
73113;SDS011;61301;51.956;5.876;2023-02-04T09:10:55;8.75;;;2.75;;
73113;SDS011;61301;51.956;5.876;2023-02-04T09:13:21;16.48;;;4.35;;
73113;SDS011;61301;51.956;5.876;2023-02-04T09:15:47;5.90;;;1.92;;
73113;SDS011;61301;51.956;5.876;2023-02-04T09:18:13;7.68;;;1.88;;
73113;SDS011;61301;51.956;5.876;2023-02-04T09:20:42;8.80;;;1.92;;
73113;SDS011;61301;51.956;5.876;2023-02-04T09:23:08;20.27;;;3.92;;
73113;SDS011;61301;51.956;5.876;2023-02-04T09:25:37;11.38;;;2.75;;
73113;SDS011;61301;51.956;5.876;2023-02-04T09:28:04;19.88;;;3.92;;
73113;SDS011;61301;51.956;5.876;2023-02-04T09:30:30;15.18;;;3.55;;
73113;SDS011;61301;51.956;5.876;2023-02-04T09:32:57;9.02;;;2.30;;
73113;SDS011;61301;51.956;5.876;2023-02-04T09:35:23;3.60;;;1.55;;
73113;SDS011;61301;51.956;5.876;2023-02-04T09:37:49;3.63;;;1.17;;
73113;SDS011;61301;51.956;5.876;2023-02-04T09:40:15;9.27;;;2.08;;
73113;SDS011;61301;51.956;5.876;2023-02-04T09:42:43;3.67;;;0.95;;
73113;SDS011;61301;51.956;5.876;2023-02-04T09:45:15;6.00;;;1.75;;
73113;SDS011;61301;51.956;5.876;2023-02-04T09:47:43;8.30;;;2.67;;
73113;SDS011;61301;51.956;5.876;2023-02-04T09:50:13;10.35;;;2.13;;
73113;SDS011;61301;51.956;5.876;2023-02-04T09:52:41;5.90;;;1.50;;
73113;SDS011;61301;51.956;5.876;2023-02-04T09:55:17;11.90;;;2.10;;
73113;SDS011;61301;51.956;5.876;2023-02-04T09:57:45;7.35;;;1.80;;
73113;SDS011;61301;51.956;5.876;2023-02-04T10:00:15;4.72;;;1.10;;
73113;SDS011;61301;51.956;5.876;2023-02-04T10:02:46;11.85;;;2.63;;
73113;SDS011;61301;51.956;5.876;2023-02-04T10:05:14;23.77;;;4.00;;
73113;SDS011;61301;51.956;5.876;2023-02-04T10:07:41;26.55;;;5.68;;
73113;SDS011;61301;51.956;5.876;2023-02-04T10:10:18;13.82;;;3.95;;
73113;SDS011;61301;51.956;5.876;2023-02-04T10:12:46;9.13;;;2.50;;
73113;SDS011;61301;51.956;5.876;2023-02-04T10:15:15;3.63;;;1.20;;
73113;SDS011;61301;51.956;5.876;2023-02-04T10:17:44;6.20;;;1.80;;
73113;SDS011;61301;51.956;5.876;2023-02-04T10:20:13;28.60;;;5.63;;
73113;SDS011;61301;51.956;5.876;2023-02-04T10:22:40;18.52;;;5.25;;
73113;SDS011;61301;51.956;5.876;2023-02-04T10:25:10;15.95;;;3.60;;
73113;SDS011;61301;51.956;5.876;2023-02-04T10:30:59;16.10;;;3.75;;
73113;SDS011;61301;51.956;5.876;2023-02-04T10:33:11;9.07;;;1.98;;
73113;SDS011;61301;51.956;5.876;2023-02-04T10:35:50;14.73;;;3.55;;
73113;SDS011;61301;51.956;5.876;2023-02-04T10:38:17;8.18;;;1.90;;
73113;SDS011;61301;51.956;5.876;2023-02-04T10:40:44;9.98;;;1.95;;
73113;SDS011;61301;51.956;5.876;2023-02-04T10:43:16;9.27;;;2.13;;
73113;SDS011;61301;51.956;5.876;2023-02-04T10:45:46;16.80;;;3.40;;
73113;SDS011;61301;51.956;5.876;2023-02-04T10:48:22;25.55;;;4.07;;
73113;SDS011;61301;51.956;5.876;2023-02-04T10:50:49;26.45;;;5.82;;
73113;SDS011;61301;51.956;5.876;2023-02-04T10:53:16;23.75;;;5.20;;
73113;SDS011;61301;51.956;5.876;2023-02-04T10:56:03;14.15;;;3.63;;
73113;SDS011;61301;51.956;5.876;2023-02-04T10:58:30;21.75;;;3.95;;
73113;SDS011;61301;51.956;5.876;2023-02-04T11:00:56;9.15;;;2.80;;
73113;SDS011;61301;51.956;5.876;2023-02-04T11:03:27;8.85;;;1.95;;
73113;SDS011;61301;51.956;5.876;2023-02-04T11:05:57;7.38;;;1.70;;
73113;SDS011;61301;51.956;5.876;2023-02-04T11:08:26;11.05;;;2.55;;
73113;SDS011;61301;51.956;5.876;2023-02-04T11:10:58;14.02;;;2.85;;
73113;SDS011;61301;51.956;5.876;2023-02-04T11:26:33;17.65;;;3.53;;
73113;SDS011;61301;51.956;5.876;2023-02-04T11:34:07;17.00;;;4.10;;
73113;SDS011;61301;51.956;5.876;2023-02-04T11:39:36;10.63;;;2.15;;
73113;SDS011;61301;51.956;5.876;2023-02-04T11:42:17;11.50;;;1.90;;
73113;SDS011;61301;51.956;5.876;2023-02-04T11:44:49;11.68;;;2.83;;
73113;SDS011;61301;51.956;5.876;2023-02-04T11:47:17;8.82;;;2.75;;
73113;SDS011;61301;51.956;5.876;2023-02-04T11:49:45;8.48;;;1.70;;
73113;SDS011;61301;51.956;5.876;2023-02-04T11:52:18;3.28;;;1.48;;
73113;SDS011;61301;51.956;5.876;2023-02-04T11:54:55;8.13;;;1.23;;
73113;SDS011;61301;51.956;5.876;2023-02-04T11:57:22;11.85;;;2.38;;
73113;SDS011;61301;51.956;5.876;2023-02-04T11:59:48;15.32;;;3.10;;
73113;SDS011;61301;51.956;5.876;2023-02-04T12:02:16;20.55;;;3.92;;
73113;SDS011;61301;51.956;5.876;2023-02-04T12:04:56;22.42;;;4.70;;
73113;SDS011;61301;51.956;5.876;2023-02-04T12:07:33;24.20;;;4.93;;
73113;SDS011;61301;51.956;5.876;2023-02-04T12:10:09;12.57;;;3.47;;
73113;SDS011;61301;51.956;5.876;2023-02-04T12:12:41;15.88;;;3.13;;
73113;SDS011;61301;51.956;5.876;2023-02-04T12:15:16;14.80;;;2.97;;
73113;SDS011;61301;51.956;5.876;2023-02-04T12:18:04;13.00;;;3.53;;
73113;SDS011;61301;51.956;5.876;2023-02-04T12:20:34;8.23;;;2.25;;
73113;SDS011;61301;51.956;5.876;2023-02-04T12:23:01;13.10;;;2.60;;
73113;SDS011;61301;51.956;5.876;2023-02-04T12:25:27;7.95;;;2.03;;
73113;SDS011;61301;51.956;5.876;2023-02-04T12:27:54;7.70;;;1.35;;
73113;SDS011;61301;51.956;5.876;2023-02-04T12:30:21;2.72;;;1.20;;
73113;SDS011;61301;51.956;5.876;2023-02-04T12:32:48;7.75;;;2.65;;
73113;SDS011;61301;51.956;5.876;2023-02-04T12:35:14;3.47;;;0.80;;
73113;SDS011;61301;51.956;5.876;2023-02-04T12:37:41;4.82;;;1.00;;
73113;SDS011;61301;51.956;5.876;2023-02-04T12:40:07;5.20;;;0.85;;
73113;SDS011;61301;51.956;5.876;2023-02-04T12:42:34;4.72;;;0.85;;
73113;SDS011;61301;51.956;5.876;2023-02-04T12:45:00;5.00;;;1.02;;
73113;SDS011;61301;51.956;5.876;2023-02-04T12:47:26;5.13;;;1.05;;
73113;SDS011;61301;51.956;5.876;2023-02-04T12:49:52;9.15;;;2.15;;
73113;SDS011;61301;51.956;5.876;2023-02-04T12:52:18;7.00;;;1.52;;
73113;SDS011;61301;51.956;5.876;2023-02-04T12:54:44;4.35;;;1.25;;
73113;SDS011;61301;51.956;5.876;2023-02-04T12:57:10;6.32;;;1.25;;
73113;SDS011;61301;51.956;5.876;2023-02-04T12:59:36;10.60;;;2.38;;
73113;SDS011;61301;51.956;5.876;2023-02-04T13:02:02;15.82;;;3.67;;
73113;SDS011;61301;51.956;5.876;2023-02-04T13:04:28;19.05;;;3.70;;
73113;SDS011;61301;51.956;5.876;2023-02-04T13:06:54;14.30;;;3.58;;
73113;SDS011;61301;51.956;5.876;2023-02-04T13:09:20;8.73;;;2.28;;
73113;SDS011;61301;51.956;5.876;2023-02-04T13:11:46;4.57;;;1.25;;
73113;SDS011;61301;51.956;5.876;2023-02-04T13:14:12;3.85;;;1.42;;
73113;SDS011;61301;51.956;5.876;2023-02-04T13:16:38;3.40;;;0.98;;
73113;SDS011;61301;51.956;5.876;2023-02-04T13:19:04;5.80;;;1.10;;
73113;SDS011;61301;51.956;5.876;2023-02-04T13:21:30;4.32;;;0.90;;
73113;SDS011;61301;51.956;5.876;2023-02-04T13:23:56;7.30;;;1.63;;
73113;SDS011;61301;51.956;5.876;2023-02-04T13:26:27;4.32;;;1.40;;
73113;SDS011;61301;51.956;5.876;2023-02-04T13:28:53;3.35;;;1.23;;
73113;SDS011;61301;51.956;5.876;2023-02-04T13:31:19;9.20;;;2.10;;
73113;SDS011;61301;51.956;5.876;2023-02-04T13:33:45;8.02;;;2.17;;
73113;SDS011;61301;51.956;5.876;2023-02-04T13:36:10;6.30;;;1.60;;
73113;SDS011;61301;51.956;5.876;2023-02-04T13:38:36;10.13;;;1.80;;
73113;SDS011;61301;51.956;5.876;2023-02-04T13:41:02;6.60;;;2.00;;
73113;SDS011;61301;51.956;5.876;2023-02-04T13:43:29;4.13;;;1.45;;
73113;SDS011;61301;51.956;5.876;2023-02-04T13:45:54;7.00;;;1.92;;
73113;SDS011;61301;51.956;5.876;2023-02-04T13:48:22;12.38;;;2.88;;
73113;SDS011;61301;51.956;5.876;2023-02-04T13:50:48;7.80;;;1.70;;
73113;SDS011;61301;51.956;5.876;2023-02-04T13:53:15;9.18;;;1.95;;
73113;SDS011;61301;51.956;5.876;2023-02-04T13:55:41;8.85;;;2.38;;
73113;SDS011;61301;51.956;5.876;2023-02-04T13:58:07;8.23;;;2.35;;
73113;SDS011;61301;51.956;5.876;2023-02-04T14:00:34;9.18;;;1.83;;
73113;SDS011;61301;51.956;5.876;2023-02-04T14:03:00;7.70;;;2.05;;
73113;SDS011;61301;51.956;5.876;2023-02-04T14:05:26;9.32;;;1.70;;
73113;SDS011;61301;51.956;5.876;2023-02-04T14:07:52;6.63;;;1.67;;
73113;SDS011;61301;51.956;5.876;2023-02-04T14:10:18;4.63;;;1.52;;
73113;SDS011;61301;51.956;5.876;2023-02-04T14:12:47;1.92;;;0.75;;
73113;SDS011;61301;51.956;5.876;2023-02-04T14:15:13;9.70;;;2.00;;
73113;SDS011;61301;51.956;5.876;2023-02-04T14:17:39;5.47;;;1.30;;
73113;SDS011;61301;51.956;5.876;2023-02-04T14:20:05;5.03;;;1.33;;
73113;SDS011;61301;51.956;5.876;2023-02-04T14:22:32;3.38;;;1.20;;
73113;SDS011;61301;51.956;5.876;2023-02-04T14:24:58;4.47;;;0.95;;
73113;SDS011;61301;51.956;5.876;2023-02-04T14:27:24;3.70;;;0.85;;
73113;SDS011;61301;51.956;5.876;2023-02-04T14:29:50;5.88;;;1.42;;
73113;SDS011;61301;51.956;5.876;2023-02-04T14:32:16;3.03;;;0.90;;
73113;SDS011;61301;51.956;5.876;2023-02-04T14:34:42;5.05;;;1.27;;
73113;SDS011;61301;51.956;5.876;2023-02-04T14:37:08;1.48;;;0.50;;
73113;SDS011;61301;51.956;5.876;2023-02-04T14:39:34;1.48;;;0.60;;
73113;SDS011;61301;51.956;5.876;2023-02-04T14:42:00;3.15;;;0.70;;
73113;SDS011;61301;51.956;5.876;2023-02-04T14:44:29;2.45;;;0.60;;
73113;SDS011;61301;51.956;5.876;2023-02-04T14:46:55;7.25;;;1.27;;
73113;SDS011;61301;51.956;5.876;2023-02-04T14:49:21;4.93;;;1.42;;
73113;SDS011;61301;51.956;5.876;2023-02-04T14:51:47;2.78;;;0.90;;
73113;SDS011;61301;51.956;5.876;2023-02-04T14:54:13;5.70;;;1.63;;
73113;SDS011;61301;51.956;5.876;2023-02-04T14:56:39;11.05;;;2.78;;
73113;SDS011;61301;51.956;5.876;2023-02-04T14:59:05;9.82;;;2.42;;
73113;SDS011;61301;51.956;5.876;2023-02-04T15:01:31;7.20;;;1.70;;
73113;SDS011;61301;51.956;5.876;2023-02-04T15:03:57;10.88;;;2.50;;
73113;SDS011;61301;51.956;5.876;2023-02-04T15:06:23;15.57;;;2.97;;
73113;SDS011;61301;51.956;5.876;2023-02-04T15:08:49;10.40;;;2.08;;
73113;SDS011;61301;51.956;5.876;2023-02-04T15:11:15;8.60;;;2.53;;